Login to view products. 
Thursday, January 19, 2017 (02:12 UTC)
Ras Al Khaimah International Airport
ICAO Code: OMRK
IATA Code: RKT
  • METAR OMRK 190200Z 00000KT CAVOK 12/09 Q1019 A3010=
  • TAF OMRK 182259Z 1900/2006 09006KT CAVOK BECMG 1910/1912 35010KT BECMG 1915/1917 VRB02KT=